Search for airport 
image banner adimage banner adimage banner ad
image banner ad

KSDA - Shenandoah Muni

Located in Shenandoah, United States

ICAO - SDA, IATA -

Data provided by Airmate  

General information

Coordinates: N40°45'6" W95°24'49"
Elevation is 971 feet MSL.
Magnetic variation is 05° East
View others Airports in Iowa

Operational data

Special qualification required
Current time UTC:
Current local time:
Weather
METAR: KSDA 150955Z AUTO 03004KT 10SM CLR 17/16 A3008 RMK AO2
View NOTAMs / SUP AIP / TFR affecting this airport [VIEW]
Communications frequencies: [VIEW]

Runways:

RWY identifierQFULength (ft)Width (ft)SurfaceLDA (ft)
0443°500075CONC
22223°500075CONC
12125°343975CONC
30305°343975CONC

Airport contact information

Address: Shenandoah United States

Satellite view of KSDA